sensor_id;sensor_type;location;lat;lon;timestamp;pressure;altitude;pressure_sealevel;temperature;humidity
5883;BME280;2967;51.488;6.618;2023-08-20T00:04:57;101757.22;;;20.57;100.00
5883;BME280;2967;51.488;6.618;2023-08-20T00:10:02;101756.91;;;20.51;100.00
5883;BME280;2967;51.488;6.618;2023-08-20T00:15:08;101773.59;;;20.54;100.00
5883;BME280;2967;51.488;6.618;2023-08-20T00:20:14;101696.59;;;20.15;100.00
5883;BME280;2967;51.488;6.618;2023-08-20T00:25:18;101777.16;;;20.55;100.00
5883;BME280;2967;51.488;6.618;2023-08-20T00:30:22;101773.19;;;20.49;100.00
5883;BME280;2967;51.488;6.618;2023-08-20T00:35:26;101767.94;;;20.48;100.00
5883;BME280;2967;51.488;6.618;2023-08-20T00:40:30;101758.88;;;20.30;100.00
5883;BME280;2967;51.488;6.618;2023-08-20T00:45:34;101787.91;;;20.45;100.00
5883;BME280;2967;51.488;6.618;2023-08-20T00:50:38;101742.56;;;20.22;100.00
5883;BME280;2967;51.488;6.618;2023-08-20T00:55:42;101785.91;;;20.47;100.00
5883;BME280;2967;51.488;6.618;2023-08-20T01:00:46;101794.25;;;20.44;100.00
5883;BME280;2967;51.488;6.618;2023-08-20T01:05:53;101785.34;;;20.44;100.00
5883;BME280;2967;51.488;6.618;2023-08-20T01:11:07;101799.31;;;20.38;100.00
5883;BME280;2967;51.488;6.618;2023-08-20T01:16:13;101790.13;;;20.31;100.00
5883;BME280;2967;51.488;6.618;2023-08-20T01:21:24;101779.47;;;20.20;100.00
5883;BME280;2967;51.488;6.618;2023-08-20T01:26:45;101774.09;;;20.20;100.00
5883;BME280;2967;51.488;6.618;2023-08-20T01:31:54;101793.63;;;20.31;100.00
5883;BME280;2967;51.488;6.618;2023-08-20T01:36:57;101669.47;;;19.49;100.00
5883;BME280;2967;51.488;6.618;2023-08-20T01:41:59;101779.13;;;20.04;100.00
5883;BME280;2967;51.488;6.618;2023-08-20T01:47:04;101793.28;;;20.06;100.00
5883;BME280;2967;51.488;6.618;2023-08-20T01:52:07;101740.75;;;19.62;100.00
5883;BME280;2967;51.488;6.618;2023-08-20T01:57:09;101811.97;;;20.17;100.00
5883;BME280;2967;51.488;6.618;2023-08-20T02:02:13;101811.63;;;20.01;100.00
5883;BME280;2967;51.488;6.618;2023-08-20T02:07:16;101832.34;;;20.10;100.00
5883;BME280;2967;51.488;6.618;2023-08-20T02:12:20;101859.03;;;20.11;100.00
5883;BME280;2967;51.488;6.618;2023-08-20T02:17:24;101860.81;;;20.22;100.00
5883;BME280;2967;51.488;6.618;2023-08-20T02:22:27;101843.69;;;20.23;100.00
5883;BME280;2967;51.488;6.618;2023-08-20T02:27:31;101863.53;;;20.31;100.00
5883;BME280;2967;51.488;6.618;2023-08-20T02:32:35;101856.72;;;20.27;100.00
5883;BME280;2967;51.488;6.618;2023-08-20T02:37:39;101855.34;;;20.33;100.00
5883;BME280;2967;51.488;6.618;2023-08-20T02:42:45;101837.06;;;20.27;100.00
5883;BME280;2967;51.488;6.618;2023-08-20T02:47:49;101857.47;;;20.39;100.00
5883;BME280;2967;51.488;6.618;2023-08-20T02:52:52;101861.00;;;20.30;100.00
5883;BME280;2967;51.488;6.618;2023-08-20T02:57:55;101866.66;;;20.36;100.00
5883;BME280;2967;51.488;6.618;2023-08-20T03:03:00;101872.00;;;20.27;100.00
5883;BME280;2967;51.488;6.618;2023-08-20T03:08:05;101874.56;;;20.28;100.00
5883;BME280;2967;51.488;6.618;2023-08-20T03:13:08;101873.44;;;20.31;100.00
5883;BME280;2967;51.488;6.618;2023-08-20T03:18:12;101875.97;;;20.32;100.00
5883;BME280;2967;51.488;6.618;2023-08-20T03:23:16;101873.75;;;20.37;100.00
5883;BME280;2967;51.488;6.618;2023-08-20T03:28:19;101824.44;;;20.18;100.00
5883;BME280;2967;51.488;6.618;2023-08-20T03:33:23;101860.31;;;20.37;100.00
5883;BME280;2967;51.488;6.618;2023-08-20T03:38:27;101857.72;;;20.26;100.00
5883;BME280;2967;51.488;6.618;2023-08-20T03:43:30;101818.03;;;19.89;100.00
5883;BME280;2967;51.488;6.618;2023-08-20T03:48:34;101841.28;;;19.99;100.00
5883;BME280;2967;51.488;6.618;2023-08-20T03:53:38;101873.34;;;20.12;100.00
5883;BME280;2967;51.488;6.618;2023-08-20T03:58:41;101852.09;;;20.09;100.00
5883;BME280;2967;51.488;6.618;2023-08-20T04:03:48;101866.28;;;20.11;100.00
5883;BME280;2967;51.488;6.618;2023-08-20T04:08:51;101859.44;;;20.07;100.00
5883;BME280;2967;51.488;6.618;2023-08-20T04:13:54;101860.44;;;20.06;100.00
5883;BME280;2967;51.488;6.618;2023-08-20T04:18:58;101874.09;;;20.03;100.00
5883;BME280;2967;51.488;6.618;2023-08-20T04:24:01;101883.94;;;19.93;100.00
5883;BME280;2967;51.488;6.618;2023-08-20T04:29:04;101855.00;;;19.76;100.00
5883;BME280;2967;51.488;6.618;2023-08-20T04:34:09;101860.31;;;19.66;100.00
5883;BME280;2967;51.488;6.618;2023-08-20T04:39:17;101885.53;;;19.95;100.00
5883;BME280;2967;51.488;6.618;2023-08-20T04:44:24;101862.53;;;19.82;100.00
5883;BME280;2967;51.488;6.618;2023-08-20T04:49:30;101888.34;;;19.94;100.00
5883;BME280;2967;51.488;6.618;2023-08-20T04:54:38;101883.03;;;19.83;100.00
5883;BME280;2967;51.488;6.618;2023-08-20T04:59:42;101885.25;;;19.78;100.00
5883;BME280;2967;51.488;6.618;2023-08-20T05:04:51;101883.56;;;19.77;100.00
5883;BME280;2967;51.488;6.618;2023-08-20T05:09:54;101893.44;;;19.97;100.00
5883;BME280;2967;51.488;6.618;2023-08-20T05:14:57;101891.03;;;19.94;100.00
5883;BME280;2967;51.488;6.618;2023-08-20T05:20:02;101893.31;;;19.98;100.00
5883;BME280;2967;51.488;6.618;2023-08-20T05:25:05;101882.75;;;19.86;100.00
5883;BME280;2967;51.488;6.618;2023-08-20T05:30:09;101875.38;;;19.78;100.00
5883;BME280;2967;51.488;6.618;2023-08-20T05:35:14;101910.53;;;19.96;100.00
5883;BME280;2967;51.488;6.618;2023-08-20T05:40:18;101915.88;;;20.07;100.00
5883;BME280;2967;51.488;6.618;2023-08-20T05:45:22;101911.56;;;20.15;100.00
5883;BME280;2967;51.488;6.618;2023-08-20T05:50:28;101914.63;;;20.11;100.00
5883;BME280;2967;51.488;6.618;2023-08-20T05:55:31;101911.72;;;20.23;100.00
5883;BME280;2967;51.488;6.618;2023-08-20T06:00:35;101893.06;;;20.22;100.00
5883;BME280;2967;51.488;6.618;2023-08-20T06:05:39;101911.38;;;20.37;100.00
5883;BME280;2967;51.488;6.618;2023-08-20T06:10:41;101917.56;;;20.68;100.00
5883;BME280;2967;51.488;6.618;2023-08-20T06:15:46;101918.34;;;20.89;100.00
5883;BME280;2967;51.488;6.618;2023-08-20T06:20:50;101922.34;;;20.94;100.00
5883;BME280;2967;51.488;6.618;2023-08-20T06:25:52;101919.81;;;21.02;100.00
5883;BME280;2967;51.488;6.618;2023-08-20T06:30:55;101872.13;;;20.74;100.00
5883;BME280;2967;51.488;6.618;2023-08-20T06:35:59;101860.97;;;20.69;100.00
5883;BME280;2967;51.488;6.618;2023-08-20T06:41:05;101927.47;;;21.07;100.00
5883;BME280;2967;51.488;6.618;2023-08-20T06:46:09;101913.59;;;21.02;100.00
5883;BME280;2967;51.488;6.618;2023-08-20T06:51:19;101899.72;;;21.16;100.00
5883;BME280;2967;51.488;6.618;2023-08-20T06:56:22;101879.47;;;21.12;100.00
5883;BME280;2967;51.488;6.618;2023-08-20T07:01:25;101844.75;;;20.99;100.00
5883;BME280;2967;51.488;6.618;2023-08-20T07:06:29;101900.03;;;21.41;100.00
5883;BME280;2967;51.488;6.618;2023-08-20T07:11:32;101927.28;;;21.76;100.00
5883;BME280;2967;51.488;6.618;2023-08-20T07:16:34;101926.09;;;21.97;100.00
5883;BME280;2967;51.488;6.618;2023-08-20T07:21:43;101928.19;;;22.13;100.00
5883;BME280;2967;51.488;6.618;2023-08-20T07:26:46;101885.03;;;22.22;100.00
5883;BME280;2967;51.488;6.618;2023-08-20T07:31:49;101926.78;;;21.99;100.00
5883;BME280;2967;51.488;6.618;2023-08-20T07:36:55;101941.31;;;22.44;100.00
5883;BME280;2967;51.488;6.618;2023-08-20T07:41:58;101899.78;;;22.18;100.00
5883;BME280;2967;51.488;6.618;2023-08-20T07:47:01;101922.72;;;22.32;100.00
5883;BME280;2967;51.488;6.618;2023-08-20T07:52:08;101930.03;;;22.58;100.00
5883;BME280;2967;51.488;6.618;2023-08-20T07:57:11;101879.31;;;22.35;100.00
5883;BME280;2967;51.488;6.618;2023-08-20T08:02:14;101894.97;;;22.58;100.00
5883;BME280;2967;51.488;6.618;2023-08-20T08:07:20;101931.84;;;22.67;100.00
5883;BME280;2967;51.488;6.618;2023-08-20T08:12:23;101925.25;;;22.79;100.00
5883;BME280;2967;51.488;6.618;2023-08-20T08:17:28;101939.97;;;23.12;100.00
5883;BME280;2967;51.488;6.618;2023-08-20T08:22:34;101921.66;;;23.15;100.00
5883;BME280;2967;51.488;6.618;2023-08-20T08:27:40;101906.66;;;23.30;100.00
5883;BME280;2967;51.488;6.618;2023-08-20T08:33:04;101882.09;;;23.24;100.00
5883;BME280;2967;51.488;6.618;2023-08-20T08:38:10;101893.66;;;23.16;100.00
5883;BME280;2967;51.488;6.618;2023-08-20T08:43:44;101947.06;;;23.57;100.00
5883;BME280;2967;51.488;6.618;2023-08-20T08:48:55;101710.88;;;22.29;100.00
5883;BME280;2967;51.488;6.618;2023-08-20T08:54:02;101690.16;;;22.12;100.00
5883;BME280;2967;51.488;6.618;2023-08-20T08:59:05;101858.72;;;23.32;100.00
5883;BME280;2967;51.488;6.618;2023-08-20T09:04:08;101680.06;;;22.41;100.00
5883;BME280;2967;51.488;6.618;2023-08-20T09:09:21;101972.81;;;24.22;100.00
5883;BME280;2967;51.488;6.618;2023-08-20T09:14:28;101893.94;;;23.83;100.00
5883;BME280;2967;51.488;6.618;2023-08-20T09:19:45;101863.38;;;23.65;100.00
5883;BME280;2967;51.488;6.618;2023-08-20T09:24:57;101950.69;;;24.26;100.00
5883;BME280;2967;51.488;6.618;2023-08-20T09:30:00;101969.28;;;24.47;100.00
5883;BME280;2967;51.488;6.618;2023-08-20T09:35:18;101943.88;;;24.14;100.00
5883;BME280;2967;51.488;6.618;2023-08-20T09:40:22;101950.56;;;24.28;100.00
5883;BME280;2967;51.488;6.618;2023-08-20T09:45:28;101974.03;;;24.27;100.00
5883;BME280;2967;51.488;6.618;2023-08-20T09:50:32;101929.28;;;24.07;100.00
5883;BME280;2967;51.488;6.618;2023-08-20T09:55:41;101927.25;;;24.35;100.00
5883;BME280;2967;51.488;6.618;2023-08-20T10:00:45;101975.94;;;24.35;100.00
5883;BME280;2967;51.488;6.618;2023-08-20T10:05:48;101945.97;;;24.28;100.00
5883;BME280;2967;51.488;6.618;2023-08-20T10:10:54;101994.41;;;24.57;100.00
5883;BME280;2967;51.488;6.618;2023-08-20T10:15:57;101862.91;;;23.87;100.00
5883;BME280;2967;51.488;6.618;2023-08-20T10:21:01;101962.66;;;24.67;100.00
5883;BME280;2967;51.488;6.618;2023-08-20T10:26:09;101987.84;;;25.00;100.00
5883;BME280;2967;51.488;6.618;2023-08-20T10:31:15;101976.44;;;24.81;100.00
5883;BME280;2967;51.488;6.618;2023-08-20T10:36:21;101960.38;;;24.87;100.00
5883;BME280;2967;51.488;6.618;2023-08-20T10:41:29;101981.31;;;25.19;100.00
5883;BME280;2967;51.488;6.618;2023-08-20T10:46:31;101954.44;;;24.84;100.00
5883;BME280;2967;51.488;6.618;2023-08-20T10:51:38;101985.69;;;25.12;100.00
5883;BME280;2967;51.488;6.618;2023-08-20T10:56:45;101975.78;;;25.28;100.00
5883;BME280;2967;51.488;6.618;2023-08-20T11:01:50;101936.25;;;25.10;100.00
5883;BME280;2967;51.488;6.618;2023-08-20T11:07:07;101870.13;;;24.63;100.00
5883;BME280;2967;51.488;6.618;2023-08-20T11:12:53;101846.34;;;24.49;100.00
5883;BME280;2967;51.488;6.618;2023-08-20T11:17:57;101842.38;;;24.61;100.00
5883;BME280;2967;51.488;6.618;2023-08-20T11:23:00;101987.56;;;25.61;100.00
5883;BME280;2967;51.488;6.618;2023-08-20T11:28:06;101987.56;;;25.61;100.00
5883;BME280;2967;51.488;6.618;2023-08-20T11:33:10;101963.50;;;25.82;100.00
5883;BME280;2967;51.488;6.618;2023-08-20T11:38:13;101972.22;;;25.28;100.00
5883;BME280;2967;51.488;6.618;2023-08-20T11:43:17;101961.25;;;25.37;100.00
5883;BME280;2967;51.488;6.618;2023-08-20T11:48:21;101955.66;;;25.39;100.00
5883;BME280;2967;51.488;6.618;2023-08-20T11:53:24;101982.00;;;26.10;100.00
5883;BME280;2967;51.488;6.618;2023-08-20T11:58:32;101955.91;;;26.17;100.00
5883;BME280;2967;51.488;6.618;2023-08-20T12:03:48;101938.75;;;26.09;100.00
5883;BME280;2967;51.488;6.618;2023-08-20T12:08:52;101973.50;;;26.13;100.00
5883;BME280;2967;51.488;6.618;2023-08-20T12:13:58;101966.41;;;26.12;100.00
5883;BME280;2967;51.488;6.618;2023-08-20T12:19:01;101967.09;;;25.90;100.00
5883;BME280;2967;51.488;6.618;2023-08-20T12:24:06;101943.16;;;25.78;100.00
5883;BME280;2967;51.488;6.618;2023-08-20T12:29:11;101939.31;;;25.96;100.00
5883;BME280;2967;51.488;6.618;2023-08-20T12:34:15;101955.19;;;26.23;100.00
5883;BME280;2967;51.488;6.618;2023-08-20T12:39:17;101941.47;;;26.25;100.00
5883;BME280;2967;51.488;6.618;2023-08-20T12:44:22;101947.88;;;26.56;100.00
5883;BME280;2967;51.488;6.618;2023-08-20T12:49:24;101881.91;;;26.39;94.43
5883;BME280;2967;51.488;6.618;2023-08-20T12:54:27;101939.31;;;27.05;95.22
5883;BME280;2967;51.488;6.618;2023-08-20T12:59:31;101926.00;;;26.88;91.75
5883;BME280;2967;51.488;6.618;2023-08-20T13:04:35;101845.22;;;26.43;96.34
5883;BME280;2967;51.488;6.618;2023-08-20T13:09:47;101924.16;;;27.19;96.52
5883;BME280;2967;51.488;6.618;2023-08-20T13:14:52;101915.59;;;27.30;93.93
5883;BME280;2967;51.488;6.618;2023-08-20T13:19:55;101923.78;;;27.52;95.77
5883;BME280;2967;51.488;6.618;2023-08-20T13:24:57;101879.72;;;27.34;93.46
5883;BME280;2967;51.488;6.618;2023-08-20T13:30:02;101775.78;;;26.65;84.86
5883;BME280;2967;51.488;6.618;2023-08-20T13:35:05;101907.78;;;27.57;85.39
5883;BME280;2967;51.488;6.618;2023-08-20T13:40:12;101884.91;;;27.88;84.83
5883;BME280;2967;51.488;6.618;2023-08-20T13:45:16;101908.56;;;27.88;83.29
5883;BME280;2967;51.488;6.618;2023-08-20T13:50:19;101877.53;;;28.26;86.91
5883;BME280;2967;51.488;6.618;2023-08-20T13:55:22;101959.75;;;29.02;82.08
5883;BME280;2967;51.488;6.618;2023-08-20T14:00:26;101942.78;;;29.77;76.99
5883;BME280;2967;51.488;6.618;2023-08-20T14:05:29;101943.63;;;29.99;77.79
5883;BME280;2967;51.488;6.618;2023-08-20T14:10:32;101942.34;;;30.50;74.66
5883;BME280;2967;51.488;6.618;2023-08-20T14:15:36;101947.06;;;30.35;73.58
5883;BME280;2967;51.488;6.618;2023-08-20T14:20:39;101945.91;;;29.74;73.98
5883;BME280;2967;51.488;6.618;2023-08-20T14:25:42;101934.66;;;29.84;75.45
5883;BME280;2967;51.488;6.618;2023-08-20T14:30:46;101914.41;;;29.72;74.49
5883;BME280;2967;51.488;6.618;2023-08-20T14:35:51;101841.06;;;28.85;76.10
5883;BME280;2967;51.488;6.618;2023-08-20T14:40:53;101928.66;;;28.96;80.48
5883;BME280;2967;51.488;6.618;2023-08-20T14:45:58;101863.91;;;28.69;78.88
5883;BME280;2967;51.488;6.618;2023-08-20T14:51:01;101881.47;;;28.96;79.04
5883;BME280;2967;51.488;6.618;2023-08-20T14:56:04;101885.47;;;29.14;82.23
5883;BME280;2967;51.488;6.618;2023-08-20T15:01:08;101876.72;;;28.54;81.53
5883;BME280;2967;51.488;6.618;2023-08-20T15:06:11;101885.69;;;28.26;82.16
5883;BME280;2967;51.488;6.618;2023-08-20T15:11:16;101905.47;;;27.91;82.98
5883;BME280;2967;51.488;6.618;2023-08-20T15:16:20;101902.34;;;27.57;78.07
5883;BME280;2967;51.488;6.618;2023-08-20T15:21:23;101837.53;;;27.24;84.29
5883;BME280;2967;51.488;6.618;2023-08-20T15:26:26;101888.50;;;27.44;82.60
5883;BME280;2967;51.488;6.618;2023-08-20T15:31:31;101894.06;;;27.28;85.98
5883;BME280;2967;51.488;6.618;2023-08-20T15:36:36;101871.50;;;27.20;83.75
5883;BME280;2967;51.488;6.618;2023-08-20T15:41:39;101899.59;;;27.12;82.54
5883;BME280;2967;51.488;6.618;2023-08-20T15:46:45;101902.03;;;26.99;83.18
5883;BME280;2967;51.488;6.618;2023-08-20T15:51:48;101851.72;;;26.34;90.07
5883;BME280;2967;51.488;6.618;2023-08-20T15:56:51;101902.75;;;26.39;87.71
5883;BME280;2967;51.488;6.618;2023-08-20T16:01:56;101903.28;;;26.34;86.18
5883;BME280;2967;51.488;6.618;2023-08-20T16:07:01;101878.69;;;26.28;90.75
5883;BME280;2967;51.488;6.618;2023-08-20T16:12:05;101897.56;;;26.21;90.52
5883;BME280;2967;51.488;6.618;2023-08-20T16:17:12;101889.56;;;26.28;90.86
5883;BME280;2967;51.488;6.618;2023-08-20T16:22:17;101861.13;;;26.08;90.92
5883;BME280;2967;51.488;6.618;2023-08-20T16:27:19;101820.47;;;25.76;89.54
5883;BME280;2967;51.488;6.618;2023-08-20T16:32:27;101862.94;;;26.23;89.21
5883;BME280;2967;51.488;6.618;2023-08-20T16:37:32;101891.31;;;26.13;87.89
5883;BME280;2967;51.488;6.618;2023-08-20T16:42:35;101892.50;;;26.10;88.64
5883;BME280;2967;51.488;6.618;2023-08-20T16:47:40;101855.06;;;25.82;89.35
5883;BME280;2967;51.488;6.618;2023-08-20T16:52:43;101814.09;;;25.61;87.80
5883;BME280;2967;51.488;6.618;2023-08-20T16:57:46;101746.50;;;25.19;87.06
5883;BME280;2967;51.488;6.618;2023-08-20T17:02:53;101879.66;;;25.88;89.25
5883;BME280;2967;51.488;6.618;2023-08-20T17:07:59;101877.56;;;25.74;87.51
5883;BME280;2967;51.488;6.618;2023-08-20T17:13:03;101892.69;;;26.01;89.74
5883;BME280;2967;51.488;6.618;2023-08-20T17:18:08;101843.91;;;25.53;86.69
5883;BME280;2967;51.488;6.618;2023-08-20T17:23:10;101795.41;;;25.18;85.44
5883;BME280;2967;51.488;6.618;2023-08-20T17:28:13;101868.44;;;25.59;89.91
5883;BME280;2967;51.488;6.618;2023-08-20T17:33:18;101863.53;;;25.47;92.16
5883;BME280;2967;51.488;6.618;2023-08-20T17:38:21;101891.66;;;25.54;91.02
5883;BME280;2967;51.488;6.618;2023-08-20T17:43:25;101882.09;;;25.02;92.83
5883;BME280;2967;51.488;6.618;2023-08-20T17:48:32;101779.81;;;24.31;94.07
5883;BME280;2967;51.488;6.618;2023-08-20T17:53:35;101811.84;;;24.43;95.24
5883;BME280;2967;51.488;6.618;2023-08-20T17:58:39;101505.69;;;22.50;96.65
5883;BME280;2967;51.488;6.618;2023-08-20T18:03:49;101880.97;;;24.79;96.04
5883;BME280;2967;51.488;6.618;2023-08-20T18:08:53;101780.81;;;24.22;96.62
5883;BME280;2967;51.488;6.618;2023-08-20T18:13:57;101862.00;;;24.63;95.10
5883;BME280;2967;51.488;6.618;2023-08-20T18:19:14;101873.84;;;24.62;95.28
5883;BME280;2967;51.488;6.618;2023-08-20T18:24:18;101737.75;;;23.69;94.67
5883;BME280;2967;51.488;6.618;2023-08-20T18:29:25;101810.97;;;24.09;95.89
5883;BME280;2967;51.488;6.618;2023-08-20T18:34:35;101862.47;;;24.25;96.98
5883;BME280;2967;51.488;6.618;2023-08-20T18:39:39;101861.59;;;24.17;96.73
5883;BME280;2967;51.488;6.618;2023-08-20T18:44:42;101861.69;;;24.07;94.50
5883;BME280;2967;51.488;6.618;2023-08-20T18:49:52;101865.50;;;23.97;97.64
5883;BME280;2967;51.488;6.618;2023-08-20T18:54:59;101888.72;;;24.07;97.76
5883;BME280;2967;51.488;6.618;2023-08-20T19:00:03;101908.81;;;24.05;98.46
5883;BME280;2967;51.488;6.618;2023-08-20T19:05:14;101907.56;;;23.91;97.78
5883;BME280;2967;51.488;6.618;2023-08-20T19:10:17;101920.28;;;23.81;99.65
5883;BME280;2967;51.488;6.618;2023-08-20T19:15:21;101922.03;;;23.73;100.00
5883;BME280;2967;51.488;6.618;2023-08-20T19:20:25;101901.00;;;23.41;100.00
5883;BME280;2967;51.488;6.618;2023-08-20T19:25:29;101894.84;;;23.31;100.00
5883;BME280;2967;51.488;6.618;2023-08-20T19:30:32;101894.22;;;23.20;100.00
5883;BME280;2967;51.488;6.618;2023-08-20T19:35:36;101931.66;;;23.32;100.00
5883;BME280;2967;51.488;6.618;2023-08-20T19:40:39;101941.66;;;23.22;100.00
5883;BME280;2967;51.488;6.618;2023-08-20T19:45:42;101942.94;;;23.18;100.00
5883;BME280;2967;51.488;6.618;2023-08-20T19:50:48;101902.31;;;22.93;100.00
5883;BME280;2967;51.488;6.618;2023-08-20T19:55:54;101925.88;;;23.00;100.00
5883;BME280;2967;51.488;6.618;2023-08-20T20:00:58;101902.38;;;22.83;100.00
5883;BME280;2967;51.488;6.618;2023-08-20T20:06:05;101947.47;;;23.00;100.00
5883;BME280;2967;51.488;6.618;2023-08-20T20:11:08;101884.50;;;22.55;100.00
5883;BME280;2967;51.488;6.618;2023-08-20T20:16:14;101946.00;;;22.79;100.00
5883;BME280;2967;51.488;6.618;2023-08-20T20:21:24;101918.25;;;22.59;100.00
5883;BME280;2967;51.488;6.618;2023-08-20T20:26:26;101950.16;;;22.73;100.00
5883;BME280;2967;51.488;6.618;2023-08-20T20:31:30;101953.16;;;22.70;100.00
5883;BME280;2967;51.488;6.618;2023-08-20T20:36:43;101951.72;;;22.66;100.00
5883;BME280;2967;51.488;6.618;2023-08-20T20:41:51;101913.91;;;22.39;100.00
5883;BME280;2967;51.488;6.618;2023-08-20T20:46:57;101954.75;;;22.63;100.00
5883;BME280;2967;51.488;6.618;2023-08-20T20:52:01;101897.13;;;22.09;100.00
5883;BME280;2967;51.488;6.618;2023-08-20T20:57:05;101962.19;;;22.42;100.00
5883;BME280;2967;51.488;6.618;2023-08-20T21:02:08;101915.44;;;22.15;100.00
5883;BME280;2967;51.488;6.618;2023-08-20T21:07:12;101974.22;;;22.38;100.00
5883;BME280;2967;51.488;6.618;2023-08-20T21:12:16;101966.75;;;22.23;100.00
5883;BME280;2967;51.488;6.618;2023-08-20T21:17:19;101978.41;;;22.23;100.00
5883;BME280;2967;51.488;6.618;2023-08-20T21:22:24;101956.56;;;22.07;100.00
5883;BME280;2967;51.488;6.618;2023-08-20T21:27:27;101924.97;;;21.81;100.00
5883;BME280;2967;51.488;6.618;2023-08-20T21:32:37;101956.44;;;21.99;100.00
5883;BME280;2967;51.488;6.618;2023-08-20T21:37:41;101897.91;;;21.45;100.00
5883;BME280;2967;51.488;6.618;2023-08-20T21:42:44;101955.03;;;21.76;100.00
5883;BME280;2967;51.488;6.618;2023-08-20T21:47:47;101938.84;;;21.58;100.00
5883;BME280;2967;51.488;6.618;2023-08-20T21:52:52;101991.63;;;21.79;100.00
5883;BME280;2967;51.488;6.618;2023-08-20T21:58:00;101902.88;;;21.21;100.00
5883;BME280;2967;51.488;6.618;2023-08-20T22:03:10;101978.25;;;21.58;100.00
5883;BME280;2967;51.488;6.618;2023-08-20T22:08:15;101987.38;;;21.67;100.00
5883;BME280;2967;51.488;6.618;2023-08-20T22:13:21;101989.75;;;21.61;100.00
5883;BME280;2967;51.488;6.618;2023-08-20T22:18:24;101987.91;;;21.61;100.00
5883;BME280;2967;51.488;6.618;2023-08-20T22:23:30;101995.84;;;21.63;100.00
5883;BME280;2967;51.488;6.618;2023-08-20T22:28:33;101800.34;;;20.46;100.00
5883;BME280;2967;51.488;6.618;2023-08-20T22:33:35;102010.16;;;21.54;100.00
5883;BME280;2967;51.488;6.618;2023-08-20T22:38:40;101991.84;;;21.38;100.00
5883;BME280;2967;51.488;6.618;2023-08-20T22:43:43;101811.72;;;20.20;100.00
5883;BME280;2967;51.488;6.618;2023-08-20T22:48:47;102006.59;;;21.53;100.00
5883;BME280;2967;51.488;6.618;2023-08-20T22:53:53;102004.47;;;21.57;100.00
5883;BME280;2967;51.488;6.618;2023-08-20T22:58:56;101988.47;;;21.36;100.00
5883;BME280;2967;51.488;6.618;2023-08-20T23:03:59;101934.13;;;21.03;100.00
5883;BME280;2967;51.488;6.618;2023-08-20T23:09:03;101989.03;;;21.40;100.00
5883;BME280;2967;51.488;6.618;2023-08-20T23:14:07;101937.69;;;21.13;100.00
5883;BME280;2967;51.488;6.618;2023-08-20T23:19:10;101949.28;;;21.13;100.00
5883;BME280;2967;51.488;6.618;2023-08-20T23:24:22;101970.72;;;21.34;100.00
5883;BME280;2967;51.488;6.618;2023-08-20T23:29:25;101981.38;;;21.45;100.00
5883;BME280;2967;51.488;6.618;2023-08-20T23:34:28;101998.09;;;21.48;100.00
5883;BME280;2967;51.488;6.618;2023-08-20T23:39:34;102004.31;;;21.49;100.00
5883;BME280;2967;51.488;6.618;2023-08-20T23:44:40;102000.22;;;21.54;100.00
5883;BME280;2967;51.488;6.618;2023-08-20T23:49:43;101996.56;;;21.55;100.00
5883;BME280;2967;51.488;6.618;2023-08-20T23:54:48;101988.47;;;21.55;100.00
5883;BME280;2967;51.488;6.618;2023-08-20T23:59:51;101846.50;;;20.61;100.00
